Petros, Kentucky
Current Conditions -  °F | °C
As of 7:22 PM on Sunday 23 Nov 2014 (Local Time) from KBWG Reporting Station
Light Rain Light Rain  
Wind Chill: 61°   Ceiling: 2500
Heat Index: 61°   Visibility: 10mi
Dew Point: 55°   Wind: 21mph
Humidity: 81%   Direction: 170°S
Pressure: 29.36"   Gusts: 33mph
Location:  36.9519°N, 86.6076°W
Report Text: KBWG 240122Z AUTO 17018G29KT 10SM -RA BKN025 BKN050 OVC110 16/13 A2936 RMK AO2 PK WND 18029/0121 RAB00E01B21 CIG 012V033 P0000 T01610128
Loading
Personal Weather Stations






























Interactive Weather Map New forecast layout! Learn more

10-Day Weather Forecast

Advertisements
Track Severe Weather on mobile